createdAt,value
2023-05-12T00:02:03.128Z,4.53
2023-05-12T00:04:30.640Z,4.07
2023-05-12T00:06:57.841Z,4.07
2023-05-12T00:09:25.016Z,3.90
2023-05-12T00:11:52.439Z,4.10
2023-05-12T00:14:20.652Z,3.77
2023-05-12T00:16:51.778Z,3.50
2023-05-12T00:19:20.035Z,3.50
2023-05-12T00:21:47.675Z,3.60
2023-05-12T00:24:15.507Z,3.77
2023-05-12T00:26:42.707Z,3.50
2023-05-12T00:29:10.021Z,3.80
2023-05-12T00:31:37.255Z,3.40
2023-05-12T00:34:04.474Z,3.90
2023-05-12T00:36:31.821Z,3.27
2023-05-12T00:38:59.437Z,3.70
2023-05-12T00:41:26.866Z,3.53
2023-05-12T00:43:54.051Z,3.77
2023-05-12T00:46:21.811Z,3.20
2023-05-12T00:48:49.702Z,3.37
2023-05-12T00:51:17.406Z,3.60
2023-05-12T00:53:49.917Z,3.40
2023-05-12T00:56:19.042Z,3.53
2023-05-12T00:58:46.958Z,3.50
2023-05-12T01:01:14.271Z,3.40
2023-05-12T01:03:41.577Z,3.60
2023-05-12T01:06:21.930Z,3.40
2023-05-12T01:08:49.093Z,3.20
2023-05-12T01:11:16.355Z,3.20
2023-05-12T01:13:43.762Z,3.40
2023-05-12T01:16:13.993Z,3.07
2023-05-12T01:18:42.693Z,3.70
2023-05-12T01:21:10.832Z,3.40
2023-05-12T01:23:40.460Z,3.33
2023-05-12T01:26:08.608Z,3.20
2023-05-12T01:28:36.614Z,3.40
2023-05-12T01:31:07.194Z,3.40
2023-05-12T01:33:35.023Z,3.13
2023-05-12T01:36:02.239Z,3.10
2023-05-12T01:38:29.416Z,3.27
2023-05-12T01:40:56.614Z,3.20
2023-05-12T01:43:23.819Z,3.00
2023-05-12T01:45:51.004Z,3.17
2023-05-12T01:48:18.202Z,3.10
2023-05-12T01:50:45.387Z,3.10
2023-05-12T01:53:12.765Z,3.30
2023-05-12T01:55:40.233Z,2.90
2023-05-12T01:58:07.426Z,3.03
2023-05-12T02:00:34.595Z,3.37
2023-05-12T02:03:01.884Z,3.10
2023-05-12T02:05:29.235Z,3.10
2023-05-12T02:07:56.406Z,3.00
2023-05-12T02:10:23.618Z,3.30
2023-05-12T02:12:50.832Z,2.97
2023-05-12T02:15:18.109Z,3.10
2023-05-12T02:17:45.469Z,3.27
2023-05-12T02:20:12.930Z,3.23
2023-05-12T02:22:40.134Z,3.23
2023-05-12T02:25:07.680Z,3.40
2023-05-12T02:27:34.956Z,3.30
2023-05-12T02:30:02.151Z,3.30
2023-05-12T02:32:29.744Z,3.50
2023-05-12T02:34:57.108Z,3.40
2023-05-12T02:37:24.411Z,3.30
2023-05-12T02:39:52.815Z,3.20
2023-05-12T02:42:20.001Z,3.30
2023-05-12T02:44:47.221Z,3.27
2023-05-12T02:47:14.398Z,3.10
2023-05-12T02:49:41.583Z,3.60
2023-05-12T02:52:08.793Z,3.20
2023-05-12T02:54:36.778Z,3.40
2023-05-12T02:57:07.333Z,3.33
2023-05-12T02:59:34.545Z,3.20
2023-05-12T03:02:01.896Z,2.80
2023-05-12T03:04:29.202Z,3.10
2023-05-12T03:06:56.407Z,3.20
2023-05-12T03:09:23.569Z,3.50
2023-05-12T03:11:50.956Z,3.20
2023-05-12T03:14:18.150Z,3.07
2023-05-12T03:16:45.384Z,3.33
2023-05-12T03:19:12.705Z,3.20
2023-05-12T03:21:39.937Z,3.20
2023-05-12T03:24:07.794Z,3.53
2023-05-12T03:26:35.001Z,3.40
2023-05-12T03:29:02.252Z,3.17
2023-05-12T03:31:29.495Z,3.20
2023-05-12T03:33:56.797Z,3.33
2023-05-12T03:36:23.955Z,3.47
2023-05-12T03:38:51.102Z,3.40
2023-05-12T03:41:18.360Z,3.37
2023-05-12T03:43:45.569Z,3.40
2023-05-12T03:46:12.963Z,3.47
2023-05-12T03:48:40.224Z,3.23
2023-05-12T03:51:07.597Z,3.20
2023-05-12T03:53:34.792Z,4.07
2023-05-12T03:56:05.458Z,3.00
2023-05-12T03:58:32.726Z,3.43
2023-05-12T04:01:01.571Z,3.33
2023-05-12T04:03:31.957Z,3.37
2023-05-12T04:06:02.980Z,3.43
2023-05-12T04:08:30.707Z,3.13
2023-05-12T04:10:58.867Z,3.10
2023-05-12T04:13:26.343Z,3.43
2023-05-12T04:15:56.762Z,3.17
2023-05-12T04:18:24.106Z,3.47
2023-05-12T04:20:51.468Z,3.20
2023-05-12T04:23:18.670Z,3.07
2023-05-12T04:25:45.825Z,3.40
2023-05-12T04:28:13.013Z,3.77
2023-05-12T04:30:40.812Z,3.13
2023-05-12T04:33:08.167Z,3.40
2023-05-12T04:35:35.796Z,3.37
2023-05-12T04:38:03.517Z,3.07
2023-05-12T04:40:34.085Z,2.80
2023-05-12T04:43:02.169Z,3.20
2023-05-12T04:45:29.417Z,3.20
2023-05-12T04:47:56.663Z,3.37
2023-05-12T04:50:23.835Z,3.20
2023-05-12T04:52:51.212Z,3.13
2023-05-12T04:55:18.482Z,3.20
2023-05-12T04:57:45.871Z,3.40
2023-05-12T05:00:13.325Z,3.40
2023-05-12T05:02:41.416Z,3.20
2023-05-12T05:05:08.856Z,3.43
2023-05-12T05:07:36.029Z,3.20
2023-05-12T05:10:03.726Z,3.20
2023-05-12T05:12:30.966Z,3.27
2023-05-12T05:14:58.181Z,3.80
2023-05-12T05:17:25.421Z,3.20
2023-05-12T05:19:57.279Z,3.57
2023-05-12T05:22:26.459Z,3.43
2023-05-12T05:24:53.794Z,3.10
2023-05-12T05:27:21.033Z,3.20
2023-05-12T05:29:49.380Z,3.20
2023-05-12T05:32:16.767Z,3.30
2023-05-12T05:34:44.021Z,3.10
2023-05-12T05:37:11.273Z,3.30
2023-05-12T05:39:38.712Z,3.27
2023-05-12T05:42:06.191Z,3.13
2023-05-12T05:44:33.429Z,6.17
2023-05-12T05:47:01.329Z,3.30
2023-05-12T05:49:28.564Z,3.00
2023-05-12T05:51:55.769Z,3.20
2023-05-12T05:54:25.748Z,3.23
2023-05-12T05:56:52.913Z,3.23
2023-05-12T05:59:20.096Z,3.00
2023-05-12T06:01:47.303Z,3.50
2023-05-12T06:04:14.539Z,3.20
2023-05-12T06:06:41.879Z,3.20
2023-05-12T06:09:12.258Z,3.13
2023-05-12T06:11:39.593Z,3.10
2023-05-12T06:14:06.875Z,3.10
2023-05-12T06:16:34.119Z,2.80
2023-05-12T06:19:01.542Z,2.97
2023-05-12T06:21:28.774Z,3.03
2023-05-12T06:23:56.837Z,3.10
2023-05-12T06:26:24.079Z,3.10
2023-05-12T06:28:51.247Z,3.67
2023-05-12T06:31:18.589Z,2.87
2023-05-12T06:33:46.069Z,2.80
2023-05-12T06:36:13.248Z,3.03
2023-05-12T06:38:40.468Z,3.30
2023-05-12T06:41:07.691Z,2.93
2023-05-12T06:43:34.894Z,3.10
2023-05-12T06:46:02.099Z,2.87
2023-05-12T06:48:29.286Z,3.07
2023-05-12T06:50:56.478Z,2.70
2023-05-12T06:53:25.486Z,2.90
2023-05-12T06:55:53.653Z,3.00
2023-05-12T06:58:22.082Z,2.87
2023-05-12T07:00:49.337Z,3.00
2023-05-12T07:03:16.764Z,2.80
2023-05-12T07:05:44.381Z,3.00
2023-05-12T07:08:11.650Z,2.83
2023-05-12T07:10:40.235Z,2.83
2023-05-12T07:13:07.771Z,2.80
2023-05-12T07:15:35.053Z,2.93
2023-05-12T07:18:02.350Z,2.70
2023-05-12T07:20:29.631Z,3.03
2023-05-12T07:22:56.933Z,2.80
2023-05-12T07:25:24.463Z,2.80
2023-05-12T07:27:51.876Z,2.73
2023-05-12T07:30:19.102Z,2.60
2023-05-12T07:32:46.546Z,2.90
2023-05-12T07:35:13.749Z,2.93
2023-05-12T07:37:41.585Z,2.80
2023-05-12T07:40:09.109Z,2.87
2023-05-12T07:42:36.362Z,2.70
2023-05-12T07:45:03.522Z,2.60
2023-05-12T07:47:30.820Z,2.63
2023-05-12T07:49:58.172Z,2.83
2023-05-12T07:52:25.403Z,2.77
2023-05-12T07:54:52.641Z,2.70
2023-05-12T07:57:19.987Z,2.67
2023-05-12T07:59:47.316Z,2.50
2023-05-12T08:02:14.660Z,2.63
2023-05-12T08:04:43.236Z,2.60
2023-05-12T08:07:11.698Z,2.80
2023-05-12T08:09:38.842Z,2.50
2023-05-12T08:12:06.261Z,2.50
2023-05-12T08:14:33.523Z,2.60
2023-05-12T08:17:01.104Z,2.60
2023-05-12T08:19:28.399Z,2.70
2023-05-12T08:21:55.630Z,2.60
2023-05-12T08:24:22.816Z,2.70
2023-05-12T08:26:50.021Z,2.70
2023-05-12T08:29:17.289Z,2.83
2023-05-12T08:31:44.484Z,2.80
2023-05-12T08:34:11.716Z,2.50
2023-05-12T08:36:39.522Z,2.80
2023-05-12T08:39:07.889Z,2.73
2023-05-12T08:41:38.132Z,2.70
2023-05-12T08:44:06.368Z,2.70
2023-05-12T08:46:33.817Z,2.70
2023-05-12T08:49:02.293Z,4.10
2023-05-12T08:51:32.348Z,2.80
2023-05-12T08:53:59.603Z,2.70
2023-05-12T08:58:57.823Z,2.70
2023-05-12T09:01:25.599Z,2.80
2023-05-12T09:03:53.476Z,2.60
2023-05-12T09:06:23.205Z,2.50
2023-05-12T09:08:50.433Z,2.50
2023-05-12T09:11:18.262Z,2.50
2023-05-12T09:13:49.710Z,2.87
2023-05-12T09:16:21.739Z,2.70
2023-05-12T09:18:53.318Z,2.60
2023-05-12T09:21:20.743Z,2.67
2023-05-12T09:23:54.184Z,2.85
2023-05-12T09:26:22.747Z,2.78
2023-05-12T09:28:53.245Z,2.80
2023-05-12T09:31:22.390Z,2.83
2023-05-12T09:33:50.191Z,2.60
2023-05-12T09:36:24.543Z,2.75
2023-05-12T09:39:05.803Z,3.00
2023-05-12T09:41:36.744Z,2.90
2023-05-12T09:44:04.245Z,2.58
2023-05-12T09:46:31.617Z,2.60
2023-05-12T09:48:59.286Z,2.60
2023-05-12T09:51:26.918Z,2.83
2023-05-12T09:53:54.441Z,2.63
2023-05-12T09:56:22.766Z,2.80
2023-05-12T09:58:50.451Z,2.92
2023-05-12T10:01:23.484Z,2.72
2023-05-12T10:03:55.721Z,2.80
2023-05-12T10:06:30.273Z,2.78
2023-05-12T10:09:03.874Z,2.90
2023-05-12T10:11:31.141Z,2.60
2023-05-12T10:13:58.583Z,2.78
2023-05-12T10:16:27.504Z,2.42
2023-05-12T10:18:55.257Z,2.40
2023-05-12T10:21:22.667Z,2.58
2023-05-12T10:23:50.640Z,3.13
2023-05-12T10:26:18.404Z,2.85
2023-05-12T10:28:45.719Z,2.78
2023-05-12T10:31:14.471Z,2.80
2023-05-12T10:33:41.708Z,2.65
2023-05-12T10:36:21.663Z,2.67
2023-05-12T10:38:52.384Z,2.55
2023-05-12T10:41:35.813Z,2.75
2023-05-12T10:44:03.021Z,2.70
2023-05-12T10:46:30.707Z,2.50
2023-05-12T10:49:02.370Z,2.75
2023-05-12T10:51:33.795Z,2.60
2023-05-12T10:54:01.162Z,2.30
2023-05-12T10:56:29.868Z,2.58
2023-05-12T10:59:13.578Z,2.72
2023-05-12T11:01:42.350Z,2.65
2023-05-12T11:04:20.399Z,2.50
2023-05-12T11:06:59.320Z,2.65
2023-05-12T11:09:27.162Z,2.85
2023-05-12T11:11:54.666Z,2.58
2023-05-12T11:14:22.214Z,2.70
2023-05-12T11:16:49.386Z,2.75
2023-05-12T11:19:19.166Z,2.75
2023-05-12T11:21:46.402Z,2.40
2023-05-12T11:24:13.850Z,2.65
2023-05-12T11:26:41.531Z,2.80
2023-05-12T11:29:08.975Z,2.90
2023-05-12T11:31:36.298Z,2.95
2023-05-12T11:34:11.942Z,2.85
2023-05-12T11:36:42.382Z,2.83
2023-05-12T11:39:26.369Z,2.95
2023-05-12T11:42:02.103Z,3.10
2023-05-12T11:44:37.135Z,3.70
2023-05-12T11:47:12.087Z,3.40
2023-05-12T11:49:49.554Z,3.70
2023-05-12T11:52:17.196Z,3.63
2023-05-12T11:54:51.558Z,3.33
2023-05-12T11:57:32.160Z,3.70
2023-05-12T12:00:00.358Z,4.18
2023-05-12T12:02:28.061Z,3.90
2023-05-12T12:04:55.427Z,4.20
2023-05-12T12:07:33.005Z,3.90
2023-05-12T12:10:11.839Z,4.03
2023-05-12T12:12:39.185Z,3.95
2023-05-12T12:15:07.317Z,3.67
2023-05-12T12:17:34.628Z,3.88
2023-05-12T12:20:02.007Z,3.70
2023-05-12T12:22:34.067Z,3.60
2023-05-12T12:25:01.707Z,3.63
2023-05-12T12:27:28.982Z,3.90
2023-05-12T12:29:56.215Z,3.38
2023-05-12T12:32:23.648Z,3.35
2023-05-12T12:34:51.560Z,3.15
2023-05-12T12:37:18.772Z,3.13
2023-05-12T12:39:47.739Z,3.42
2023-05-12T12:42:15.781Z,3.15
2023-05-12T12:44:43.758Z,3.47
2023-05-12T12:47:10.993Z,3.33
2023-05-12T12:49:39.662Z,2.95
2023-05-12T12:52:07.048Z,3.22
2023-05-12T12:54:34.449Z,3.05
2023-05-12T12:57:01.641Z,2.88
2023-05-12T12:59:28.851Z,3.25
2023-05-12T13:01:59.867Z,3.25
2023-05-12T13:04:27.165Z,3.30
2023-05-12T13:06:54.433Z,3.15
2023-05-12T13:09:21.635Z,3.20
2023-05-12T13:11:48.850Z,3.22
2023-05-12T13:14:16.116Z,3.13
2023-05-12T13:16:43.430Z,3.38
2023-05-12T13:19:11.093Z,3.10
2023-05-12T13:21:38.435Z,3.25
2023-05-12T13:24:05.737Z,3.00
2023-05-12T13:26:33.173Z,3.30
2023-05-12T13:29:00.474Z,2.85
2023-05-12T13:31:27.660Z,2.97
2023-05-12T13:33:54.842Z,2.85
2023-05-12T13:36:22.047Z,2.90
2023-05-12T13:38:49.221Z,3.45
2023-05-12T13:41:16.415Z,3.05
2023-05-12T13:43:44.049Z,2.90
2023-05-12T13:46:11.262Z,3.00
2023-05-12T13:48:38.433Z,2.80
2023-05-12T13:51:05.787Z,2.95
2023-05-12T13:53:32.993Z,3.10
2023-05-12T13:56:00.185Z,3.33
2023-05-12T13:58:27.340Z,3.00
2023-05-12T14:00:54.508Z,2.95
2023-05-12T14:03:21.780Z,3.03
2023-05-12T14:05:48.985Z,3.10
2023-05-12T14:08:16.611Z,2.97
2023-05-12T14:10:44.529Z,3.05
2023-05-12T14:13:12.670Z,3.13
2023-05-12T14:15:48.488Z,2.97
2023-05-12T14:18:16.262Z,3.42
2023-05-12T14:20:43.471Z,3.75
2023-05-12T14:23:10.658Z,3.53
2023-05-12T14:25:37.902Z,3.20
2023-05-12T14:28:05.072Z,3.20
2023-05-12T14:30:35.032Z,3.22
2023-05-12T14:33:03.006Z,3.20
2023-05-12T14:35:30.563Z,3.20
2023-05-12T14:37:57.833Z,3.25
2023-05-12T14:40:25.095Z,3.10
2023-05-12T14:42:52.577Z,3.17
2023-05-12T14:45:20.097Z,3.20
2023-05-12T14:47:47.604Z,3.72
2023-05-12T14:50:15.070Z,3.22
2023-05-12T14:52:42.311Z,3.33
2023-05-12T14:55:13.704Z,3.30
2023-05-12T14:57:41.665Z,2.92
2023-05-12T15:00:10.864Z,3.35
2023-05-12T15:02:38.450Z,3.13
2023-05-12T15:05:07.153Z,3.35
2023-05-12T15:07:34.436Z,3.03
2023-05-12T15:10:01.640Z,3.20
2023-05-12T15:12:28.990Z,3.65
2023-05-12T15:14:56.488Z,3.20
2023-05-12T15:17:23.942Z,3.22
2023-05-12T15:19:51.171Z,3.05
2023-05-12T15:22:18.406Z,3.10
2023-05-12T15:24:45.597Z,2.92
2023-05-12T15:27:12.848Z,3.13
2023-05-12T15:29:40.723Z,3.00
2023-05-12T15:32:08.357Z,3.03
2023-05-12T15:34:35.975Z,3.17
2023-05-12T15:37:03.697Z,2.97
2023-05-12T15:39:30.974Z,3.00
2023-05-12T15:41:58.965Z,3.08
2023-05-12T15:44:26.204Z,3.08
2023-05-12T15:46:53.531Z,3.10
2023-05-12T15:49:20.865Z,3.13
2023-05-12T15:51:48.396Z,2.50
2023-05-12T15:54:15.614Z,2.60
2023-05-12T15:56:43.378Z,2.92
2023-05-12T15:59:16.909Z,2.88
2023-05-12T16:01:44.216Z,3.08
2023-05-12T16:04:11.976Z,2.90
2023-05-12T16:06:39.552Z,2.70
2023-05-12T16:09:07.242Z,2.78
2023-05-12T16:11:34.649Z,2.70
2023-05-12T16:14:02.693Z,2.80
2023-05-12T16:16:30.518Z,2.60
2023-05-12T16:18:57.917Z,2.90
2023-05-12T16:21:26.245Z,2.85
2023-05-12T16:23:53.414Z,2.75
2023-05-12T16:26:20.608Z,2.92
2023-05-12T16:28:49.164Z,2.97
2023-05-12T16:31:18.796Z,7.35
2023-05-12T16:33:46.123Z,5.10
2023-05-12T16:36:13.304Z,11.82
2023-05-12T16:38:40.510Z,3.55
2023-05-12T16:41:07.763Z,3.50
2023-05-12T16:43:35.065Z,3.28
2023-05-12T16:46:03.071Z,3.20
2023-05-12T16:48:33.508Z,5.68
2023-05-12T16:51:04.692Z,3.28
2023-05-12T16:53:32.127Z,4.82
2023-05-12T16:55:59.675Z,3.90
2023-05-12T16:58:31.279Z,3.80
2023-05-12T17:00:58.892Z,4.90
2023-05-12T17:03:26.354Z,3.10
2023-05-12T17:05:53.596Z,3.35
2023-05-12T17:08:20.863Z,3.50
2023-05-12T17:10:48.149Z,3.30
2023-05-12T17:13:17.033Z,3.40
2023-05-12T17:15:44.337Z,3.17
2023-05-12T17:18:13.188Z,3.22
2023-05-12T17:20:40.747Z,2.90
2023-05-12T17:23:08.288Z,3.03
2023-05-12T17:25:36.632Z,3.20
2023-05-12T17:28:04.725Z,2.67
2023-05-12T17:30:32.040Z,3.33
2023-05-12T17:32:59.351Z,3.10
2023-05-12T17:35:26.681Z,2.83
2023-05-12T17:37:55.377Z,2.88
2023-05-12T17:40:23.079Z,3.30
2023-05-12T17:42:50.309Z,2.83
2023-05-12T17:45:18.025Z,3.03
2023-05-12T17:47:46.113Z,3.33
2023-05-12T17:50:15.096Z,3.10
2023-05-12T17:52:43.224Z,3.30
2023-05-12T17:55:11.888Z,3.00
2023-05-12T17:57:39.323Z,3.13
2023-05-12T18:00:10.477Z,3.03
2023-05-12T18:02:38.519Z,3.30
2023-05-12T18:05:06.356Z,3.25
2023-05-12T18:07:33.932Z,3.30
2023-05-12T18:10:01.516Z,3.10
2023-05-12T18:12:28.678Z,3.10
2023-05-12T18:14:56.732Z,3.20
2023-05-12T18:17:24.148Z,3.30
2023-05-12T18:19:51.524Z,2.92
2023-05-12T18:22:18.992Z,3.20
2023-05-12T18:24:46.246Z,3.17
2023-05-12T18:27:13.400Z,3.10
2023-05-12T18:29:40.642Z,3.03
2023-05-12T18:32:08.065Z,3.00
2023-05-12T18:34:35.784Z,2.72
2023-05-12T18:37:02.962Z,3.00
2023-05-12T18:39:30.115Z,3.30
2023-05-12T18:41:57.727Z,3.20
2023-05-12T18:44:24.965Z,3.15
2023-05-12T18:46:52.225Z,3.33
2023-05-12T18:49:19.469Z,3.67
2023-05-12T18:51:46.718Z,3.27
2023-05-12T18:54:13.927Z,3.80
2023-05-12T18:56:41.298Z,3.33
2023-05-12T18:59:08.530Z,3.40
2023-05-12T19:01:35.872Z,3.47
2023-05-12T19:04:03.957Z,3.50
2023-05-12T19:06:31.211Z,3.23
2023-05-12T19:08:59.734Z,3.60
2023-05-12T19:11:26.983Z,3.20
2023-05-12T19:13:54.199Z,3.10
2023-05-12T19:16:23.743Z,3.57
2023-05-12T19:18:51.444Z,3.33
2023-05-12T19:21:18.780Z,3.30
2023-05-12T19:23:45.984Z,3.10
2023-05-12T19:26:13.483Z,3.67
2023-05-12T19:28:40.768Z,3.40
2023-05-12T19:31:08.077Z,3.77
2023-05-12T19:33:35.481Z,3.50
2023-05-12T19:36:03.154Z,3.50
2023-05-12T19:38:30.419Z,3.60
2023-05-12T19:40:57.666Z,3.37
2023-05-12T19:43:24.955Z,3.33
2023-05-12T19:45:52.167Z,3.60
2023-05-12T19:48:21.297Z,3.60
2023-05-12T19:50:48.610Z,3.60
2023-05-12T19:53:15.817Z,3.60
2023-05-12T19:55:43.151Z,3.40
2023-05-12T19:58:10.420Z,3.90
2023-05-12T20:00:39.386Z,3.63
2023-05-12T20:03:07.100Z,3.53
2023-05-12T20:05:37.777Z,3.60
2023-05-12T20:08:05.358Z,3.80
2023-05-12T20:10:32.544Z,3.80
2023-05-12T20:13:01.229Z,3.90
2023-05-12T20:15:28.428Z,3.87
2023-05-12T20:17:56.166Z,4.00
2023-05-12T20:20:23.492Z,4.40
2023-05-12T20:22:50.753Z,4.53
2023-05-12T20:25:18.007Z,5.10
2023-05-12T20:27:45.247Z,4.50
2023-05-12T20:30:12.781Z,4.50
2023-05-12T20:32:40.110Z,4.77
2023-05-12T20:35:07.584Z,4.20
2023-05-12T20:37:34.883Z,4.80
2023-05-12T20:40:02.248Z,4.40
2023-05-12T20:42:29.571Z,4.23
2023-05-12T20:44:56.776Z,4.40
2023-05-12T20:47:24.288Z,4.50
2023-05-12T20:49:57.711Z,4.80
2023-05-12T20:52:28.833Z,4.50
2023-05-12T20:54:57.462Z,4.53
2023-05-12T20:57:24.773Z,4.10
2023-05-12T20:59:57.021Z,4.20
2023-05-12T21:02:28.699Z,4.20
2023-05-12T21:04:56.883Z,4.20
2023-05-12T21:07:24.115Z,4.10
2023-05-12T21:09:51.324Z,4.00
2023-05-12T21:12:20.383Z,3.97
2023-05-12T21:14:47.720Z,3.90
2023-05-12T21:17:16.368Z,3.90
2023-05-12T21:19:44.143Z,3.83
2023-05-12T21:22:12.867Z,3.90
2023-05-12T21:24:40.187Z,4.07
2023-05-12T21:27:08.258Z,3.80
2023-05-12T21:29:36.422Z,4.07
2023-05-12T21:32:03.885Z,4.00
2023-05-12T21:34:33.692Z,3.63
2023-05-12T21:37:01.145Z,3.57
2023-05-12T21:39:28.468Z,3.63
2023-05-12T21:41:55.869Z,3.90
2023-05-12T21:44:23.140Z,4.03
2023-05-12T21:46:50.485Z,3.80
2023-05-12T21:49:17.701Z,4.00
2023-05-12T21:51:44.946Z,4.33
2023-05-12T21:54:12.441Z,3.97
2023-05-12T21:56:39.787Z,4.07
2023-05-12T21:59:07.000Z,3.77
2023-05-12T22:01:34.206Z,4.07
2023-05-12T22:04:01.522Z,4.07
2023-05-12T22:06:28.750Z,3.80
2023-05-12T22:08:55.933Z,4.20
2023-05-12T22:11:23.339Z,3.90
2023-05-12T22:13:50.864Z,4.07
2023-05-12T22:16:20.052Z,4.17
2023-05-12T22:18:50.892Z,3.80
2023-05-12T22:21:18.082Z,3.83
2023-05-12T22:23:45.358Z,3.77
2023-05-12T22:26:12.544Z,4.30
2023-05-12T22:28:39.786Z,4.13
2023-05-12T22:31:07.014Z,3.90
2023-05-12T22:33:34.700Z,3.93
2023-05-12T22:36:01.948Z,4.33
2023-05-12T22:38:29.168Z,4.13
2023-05-12T22:40:56.397Z,4.33
2023-05-12T22:43:23.677Z,4.50
2023-05-12T22:45:55.772Z,4.57
2023-05-12T22:48:23.012Z,4.20
2023-05-12T22:50:50.465Z,4.40
2023-05-12T22:53:17.653Z,4.50
2023-05-12T22:55:44.886Z,5.50
2023-05-12T22:58:12.198Z,4.10
2023-05-12T23:00:39.537Z,4.43
2023-05-12T23:03:07.404Z,4.23
2023-05-12T23:05:34.714Z,4.50
2023-05-12T23:08:02.955Z,4.23
2023-05-12T23:10:30.328Z,4.23
2023-05-12T23:12:57.645Z,4.70
2023-05-12T23:15:24.944Z,4.53
2023-05-12T23:17:52.322Z,4.60
2023-05-12T23:20:20.122Z,4.47
2023-05-12T23:22:47.470Z,4.43
2023-05-12T23:25:14.678Z,4.00
2023-05-12T23:27:41.841Z,4.30
2023-05-12T23:30:09.319Z,4.33
2023-05-12T23:32:36.656Z,4.57
2023-05-12T23:35:04.040Z,4.47
2023-05-12T23:37:31.210Z,4.43
2023-05-12T23:39:58.386Z,4.40
2023-05-12T23:42:25.618Z,4.43
2023-05-12T23:44:52.842Z,4.47
2023-05-12T23:47:19.998Z,4.67
2023-05-12T23:49:47.152Z,4.27
2023-05-12T23:52:14.296Z,4.20
2023-05-12T23:54:41.529Z,4.40
2023-05-12T23:57:08.687Z,4.30
2023-05-12T23:59:36.141Z,4.20
